createdAt,value
2018-05-13T00:00:56.038Z,43.93
2018-05-13T00:03:24.368Z,47.83
2018-05-13T00:05:52.721Z,50.87
2018-05-13T00:08:21.057Z,46.43
2018-05-13T00:10:49.415Z,49.07
2018-05-13T00:13:17.740Z,51.53
2018-05-13T00:15:46.091Z,54.50
2018-05-13T00:18:14.436Z,45.67
2018-05-13T00:20:42.788Z,50.97
2018-05-13T00:23:11.121Z,45.47
2018-05-13T00:25:39.472Z,54.40
2018-05-13T00:28:07.809Z,49.73
2018-05-13T00:30:36.172Z,57.20
2018-05-13T00:33:04.505Z,49.53
2018-05-13T00:35:32.934Z,49.00
2018-05-13T00:38:01.194Z,48.00
2018-05-13T00:40:29.549Z,43.73
2018-05-13T00:42:57.881Z,46.17
2018-05-13T00:45:26.242Z,48.70
2018-05-13T00:47:54.572Z,55.80
2018-05-13T00:50:22.934Z,46.57
2018-05-13T00:52:51.265Z,49.50
2018-05-13T00:55:19.621Z,47.40
2018-05-13T00:57:47.948Z,48.63
2018-05-13T01:00:16.309Z,43.10
2018-05-13T01:02:44.673Z,43.97
2018-05-13T01:05:12.972Z,46.33
2018-05-13T01:07:41.334Z,52.97
2018-05-13T01:10:09.674Z,40.87
2018-05-13T01:12:38.020Z,47.63
2018-05-13T01:15:06.359Z,47.57
2018-05-13T01:17:34.708Z,44.50
2018-05-13T01:20:03.044Z,47.33
2018-05-13T01:22:31.398Z,52.07
2018-05-13T01:24:59.732Z,45.83
2018-05-13T01:27:28.085Z,47.17
2018-05-13T01:29:56.415Z,46.93
2018-05-13T01:32:24.775Z,50.83
2018-05-13T01:34:53.106Z,50.00
2018-05-13T01:37:21.462Z,50.23
2018-05-13T01:39:49.792Z,49.03
2018-05-13T01:42:18.144Z,49.67
2018-05-13T01:44:46.485Z,51.03
2018-05-13T01:47:14.847Z,43.77
2018-05-13T01:49:43.184Z,43.40
2018-05-13T01:52:11.536Z,42.40
2018-05-13T01:54:39.868Z,46.60
2018-05-13T01:57:08.221Z,44.90
2018-05-13T01:59:36.561Z,44.20
2018-05-13T02:02:04.917Z,47.30
2018-05-13T02:04:33.247Z,46.50
2018-05-13T02:07:01.601Z,48.10
2018-05-13T02:09:29.936Z,44.30
2018-05-13T02:11:58.284Z,47.33
2018-05-13T02:14:26.615Z,44.50
2018-05-13T02:16:54.985Z,45.13
2018-05-13T02:19:23.316Z,49.33
2018-05-13T02:21:51.672Z,50.50
2018-05-13T02:24:20.009Z,60.40
2018-05-13T02:26:48.376Z,49.53
2018-05-13T02:29:16.697Z,51.87
2018-05-13T02:31:45.046Z,54.23
2018-05-13T02:34:13.385Z,46.20
2018-05-13T02:36:41.741Z,50.87
2018-05-13T02:39:10.073Z,48.83
2018-05-13T02:41:38.425Z,47.40
2018-05-13T02:44:06.753Z,47.10
2018-05-13T02:46:35.105Z,48.03
2018-05-13T02:49:03.437Z,45.60
2018-05-13T02:51:31.793Z,48.87
2018-05-13T02:54:00.130Z,49.70
2018-05-13T02:56:28.480Z,49.80
2018-05-13T02:58:56.809Z,46.73
2018-05-13T03:01:25.171Z,44.87
2018-05-13T03:03:53.529Z,47.17
2018-05-13T03:06:21.856Z,55.50
2018-05-13T03:08:50.545Z,46.20
2018-05-13T03:11:18.878Z,47.50
2018-05-13T03:13:47.227Z,46.57
2018-05-13T03:16:15.562Z,46.60
2018-05-13T03:18:43.916Z,47.93
2018-05-13T03:21:12.249Z,48.30
2018-05-13T03:23:40.634Z,43.57
2018-05-13T03:26:08.960Z,41.70
2018-05-13T03:28:37.321Z,48.43
2018-05-13T03:31:05.662Z,44.17
2018-05-13T03:33:34.041Z,44.53
2018-05-13T03:36:02.368Z,50.43
2018-05-13T03:38:30.725Z,45.23
2018-05-13T03:40:59.056Z,45.37
2018-05-13T03:43:27.409Z,42.23
2018-05-13T03:45:55.749Z,41.80
2018-05-13T03:48:24.109Z,46.50
2018-05-13T03:50:52.440Z,42.77
2018-05-13T03:53:20.801Z,49.57
2018-05-13T03:55:49.134Z,45.80
2018-05-13T03:58:17.484Z,50.17
2018-05-13T04:00:45.817Z,50.60
2018-05-13T04:03:14.168Z,50.73
2018-05-13T04:05:42.504Z,47.53
2018-05-13T04:11:33.533Z,41.47
2018-05-13T04:14:13.520Z,45.30
2018-05-13T04:16:41.854Z,44.23
2018-05-13T04:19:10.200Z,50.10
2018-05-13T04:21:38.537Z,49.70
2018-05-13T04:24:06.889Z,46.90
2018-05-13T04:26:35.229Z,51.00
2018-05-13T04:29:03.584Z,45.03
2018-05-13T04:31:31.928Z,41.20
2018-05-13T04:34:00.281Z,48.97
2018-05-13T04:36:28.613Z,45.40
2018-05-13T04:38:56.965Z,46.13
2018-05-13T04:41:25.292Z,44.27
2018-05-13T04:43:53.665Z,47.53
2018-05-13T04:46:22.071Z,43.97
2018-05-13T04:48:50.360Z,48.00
2018-05-13T04:51:18.699Z,46.43
2018-05-13T04:53:47.060Z,45.80
2018-05-13T04:56:15.397Z,43.03
2018-05-13T04:58:43.745Z,44.93
2018-05-13T05:01:12.079Z,47.43
2018-05-13T05:03:40.428Z,48.80
2018-05-13T05:06:08.765Z,46.00
2018-05-13T05:08:37.122Z,41.17
2018-05-13T05:11:05.451Z,49.37
2018-05-13T05:13:33.809Z,45.60
2018-05-13T05:16:02.140Z,43.67
2018-05-13T05:18:30.496Z,46.80
2018-05-13T05:20:58.834Z,49.53
2018-05-13T05:23:27.193Z,49.63
2018-05-13T05:25:55.524Z,41.83
2018-05-13T05:28:23.876Z,43.57
2018-05-13T05:30:52.217Z,45.07
2018-05-13T05:33:20.586Z,46.50
2018-05-13T05:35:48.996Z,44.37
2018-05-13T05:38:17.273Z,52.13
2018-05-13T05:40:45.620Z,47.43
2018-05-13T05:43:13.973Z,48.60
2018-05-13T05:45:42.309Z,45.33
2018-05-13T05:48:10.661Z,42.87
2018-05-13T05:50:38.997Z,46.23
2018-05-13T05:53:07.357Z,47.03
2018-05-13T05:55:35.692Z,44.83
2018-05-13T05:58:04.041Z,45.57
2018-05-13T06:00:32.388Z,49.87
2018-05-13T06:03:00.729Z,39.20
2018-05-13T06:05:29.088Z,48.97
2018-05-13T06:07:57.419Z,41.07
2018-05-13T06:10:25.774Z,45.03
2018-05-13T06:12:54.109Z,40.63
2018-05-13T06:15:22.465Z,47.67
2018-05-13T06:17:50.800Z,43.20
2018-05-13T06:20:19.153Z,46.83
2018-05-13T06:22:47.489Z,45.20
2018-05-13T06:25:15.925Z,43.27
2018-05-13T06:27:44.166Z,44.87
2018-05-13T06:30:12.523Z,45.93
2018-05-13T06:32:40.857Z,55.83
2018-05-13T06:35:09.214Z,43.23
2018-05-13T06:37:37.555Z,48.83
2018-05-13T06:40:05.905Z,45.50
2018-05-13T06:42:34.243Z,42.60
2018-05-13T06:45:02.593Z,43.77
2018-05-13T06:47:30.924Z,39.83
2018-05-13T06:49:59.277Z,44.00
2018-05-13T06:52:27.617Z,52.10
2018-05-13T06:54:55.983Z,44.20
2018-05-13T06:57:24.393Z,45.20
2018-05-13T06:59:53.281Z,42.10
2018-05-13T07:02:21.621Z,44.73
2018-05-13T07:04:49.981Z,43.70
2018-05-13T07:07:18.317Z,42.73
2018-05-13T07:09:46.676Z,39.53
2018-05-13T07:12:15.009Z,47.20
2018-05-13T07:14:43.365Z,44.37
2018-05-13T07:17:11.702Z,43.80
2018-05-13T07:19:40.088Z,43.00
2018-05-13T07:22:08.428Z,42.50
2018-05-13T07:24:36.786Z,47.03
2018-05-13T07:27:05.124Z,45.83
2018-05-13T07:29:33.484Z,42.47
2018-05-13T07:32:01.816Z,48.07
2018-05-13T07:34:30.191Z,43.25
2018-05-13T07:36:58.528Z,46.93
2018-05-13T07:39:27.624Z,56.20
2018-05-13T07:41:55.958Z,49.50
2018-05-13T07:44:24.324Z,45.13
2018-05-13T07:46:52.666Z,45.40
2018-05-13T07:49:21.031Z,48.23
2018-05-13T07:51:49.368Z,41.50
2018-05-13T07:54:17.724Z,42.57
2018-05-13T07:56:46.060Z,47.20
2018-05-13T07:59:14.410Z,43.07
2018-05-13T08:01:42.760Z,43.00
2018-05-13T08:04:11.101Z,48.50
2018-05-13T08:06:39.672Z,44.77
2018-05-13T08:09:08.151Z,43.05
2018-05-13T08:11:36.831Z,46.77
2018-05-13T08:14:05.280Z,46.53
2018-05-13T08:16:33.990Z,41.37
2018-05-13T08:19:03.392Z,42.80
2018-05-13T08:21:31.748Z,60.00
2018-05-13T08:24:00.076Z,53.67
2018-05-13T08:26:28.441Z,42.20
2018-05-13T08:28:56.773Z,48.23
2018-05-13T08:31:25.132Z,41.75
2018-05-13T08:33:53.472Z,40.17
2018-05-13T08:36:21.841Z,44.47
2018-05-13T08:38:50.513Z,41.03
2018-05-13T08:41:18.869Z,38.33
2018-05-13T08:43:47.208Z,40.40
2018-05-13T08:46:15.578Z,45.92
2018-05-13T08:48:43.918Z,40.85
2018-05-13T08:51:12.275Z,38.60
2018-05-13T08:53:40.608Z,43.78
2018-05-13T08:56:08.993Z,42.17
2018-05-13T08:58:37.369Z,44.67
2018-05-13T09:01:05.731Z,44.28
2018-05-13T09:03:34.069Z,40.20
2018-05-13T09:06:02.433Z,42.10
2018-05-13T09:08:30.829Z,40.90
2018-05-13T09:10:59.133Z,41.05
2018-05-13T09:13:27.590Z,38.90
2018-05-13T09:15:55.949Z,42.27
2018-05-13T09:18:24.972Z,47.50
2018-05-13T09:20:53.344Z,42.20
2018-05-13T09:23:21.672Z,47.53
2018-05-13T09:25:52.957Z,39.63
2018-05-13T09:28:21.307Z,40.58
2018-05-13T09:30:49.670Z,46.13
2018-05-13T09:33:18.017Z,41.47
2018-05-13T09:35:46.385Z,42.20
2018-05-13T09:38:14.726Z,39.87
2018-05-13T09:40:43.085Z,35.00
2018-05-13T09:43:11.425Z,50.63
2018-05-13T09:45:39.954Z,35.37
2018-05-13T09:48:08.285Z,34.53
2018-05-13T09:50:36.645Z,35.70
2018-05-13T09:53:04.989Z,36.60
2018-05-13T09:55:33.371Z,37.22
2018-05-13T09:58:01.722Z,42.23
2018-05-13T10:00:30.091Z,33.60
2018-05-13T10:02:58.439Z,33.40
2018-05-13T10:05:26.783Z,29.30
2018-05-13T10:07:55.142Z,37.28
2018-05-13T10:10:23.485Z,34.50
2018-05-13T10:12:51.845Z,31.73
2018-05-13T10:15:20.188Z,25.70
2018-05-13T10:17:48.550Z,29.63
2018-05-13T10:20:16.885Z,30.10
2018-05-13T10:22:45.244Z,24.93
2018-05-13T10:25:13.599Z,26.87
2018-05-13T10:27:41.950Z,26.50
2018-05-13T10:30:10.285Z,24.20
2018-05-13T10:32:38.641Z,29.63
2018-05-13T10:35:06.981Z,34.53
2018-05-13T10:37:36.702Z,28.90
2018-05-13T10:40:05.331Z,30.57
2018-05-13T10:42:33.825Z,30.70
2018-05-13T10:45:02.132Z,28.23
2018-05-13T10:47:30.493Z,23.87
2018-05-13T10:49:58.828Z,27.30
2018-05-13T10:52:27.188Z,28.23
2018-05-13T10:54:55.522Z,27.50
2018-05-13T10:57:23.890Z,25.47
2018-05-13T10:59:52.226Z,31.63
2018-05-13T11:02:20.589Z,28.33
2018-05-13T11:04:49.028Z,28.53
2018-05-13T11:07:17.301Z,26.10
2018-05-13T11:09:45.727Z,29.48
2018-05-13T11:12:14.069Z,23.50
2018-05-13T11:14:42.406Z,24.57
2018-05-13T11:17:10.994Z,22.90
2018-05-13T11:19:39.338Z,21.47
2018-05-13T11:22:07.693Z,24.40
2018-05-13T11:24:36.033Z,30.75
2018-05-13T11:27:04.397Z,18.87
2018-05-13T11:29:32.734Z,20.95
2018-05-13T11:32:01.213Z,20.33
2018-05-13T11:34:29.553Z,19.07
2018-05-13T11:36:58.625Z,21.93
2018-05-13T11:39:26.973Z,21.10
2018-05-13T11:41:55.970Z,19.37
2018-05-13T11:44:24.310Z,17.43
2018-05-13T11:46:52.665Z,21.43
2018-05-13T11:49:21.096Z,18.33
2018-05-13T11:51:49.453Z,18.53
2018-05-13T11:54:17.802Z,21.52
2018-05-13T11:56:46.163Z,19.80
2018-05-13T11:59:14.500Z,16.90
2018-05-13T12:01:42.853Z,16.40
2018-05-13T12:04:11.198Z,14.73
2018-05-13T12:06:39.566Z,15.07
2018-05-13T12:09:07.900Z,22.83
2018-05-13T12:11:36.245Z,18.93
2018-05-13T12:14:04.605Z,24.35
2018-05-13T12:16:33.052Z,16.20
2018-05-13T12:19:01.474Z,19.70
2018-05-13T12:21:29.749Z,15.87
2018-05-13T12:23:58.117Z,17.77
2018-05-13T12:26:26.464Z,20.53
2018-05-13T12:28:54.857Z,15.73
2018-05-13T12:31:23.186Z,16.75
2018-05-13T12:33:51.553Z,18.93
2018-05-13T12:36:19.893Z,17.77
2018-05-13T12:38:48.253Z,22.70
2018-05-13T12:41:16.584Z,14.23
2018-05-13T12:43:44.948Z,14.40
2018-05-13T12:46:13.289Z,18.40
2018-05-13T12:48:41.648Z,12.93
2018-05-13T12:51:09.994Z,37.13
2018-05-13T12:53:38.352Z,18.00
2018-05-13T12:56:07.849Z,14.70
2018-05-13T12:58:36.207Z,13.55
2018-05-13T13:01:04.554Z,19.57
2018-05-13T13:03:32.902Z,21.80
2018-05-13T13:06:01.261Z,20.73
2018-05-13T13:08:29.654Z,17.08
2018-05-13T13:10:57.952Z,26.60
2018-05-13T13:13:26.312Z,20.60
2018-05-13T13:15:54.648Z,17.67
2018-05-13T13:18:23.949Z,19.60
2018-05-13T13:20:52.293Z,15.53
2018-05-13T13:23:20.652Z,16.80
2018-05-13T13:25:49.010Z,17.77
2018-05-13T13:28:17.360Z,14.60
2018-05-13T13:30:45.780Z,15.20
2018-05-13T13:33:14.071Z,14.47
2018-05-13T13:35:42.409Z,12.33
2018-05-13T13:38:10.773Z,16.67
2018-05-13T13:40:39.118Z,16.07
2018-05-13T13:43:07.487Z,14.67
2018-05-13T13:45:35.849Z,10.70
2018-05-13T13:48:04.201Z,16.87
2018-05-13T13:50:32.540Z,14.03
2018-05-13T13:53:00.916Z,15.13
2018-05-13T13:55:29.969Z,12.77
2018-05-13T13:57:58.379Z,10.73
2018-05-13T14:00:26.748Z,14.80
2018-05-13T14:02:55.110Z,19.43
2018-05-13T14:05:23.485Z,13.95
2018-05-13T14:07:51.846Z,13.63
2018-05-13T14:10:20.179Z,17.48
2018-05-13T14:12:48.505Z,16.37
2018-05-13T14:15:16.928Z,14.50
2018-05-13T14:17:45.276Z,14.13
2018-05-13T14:20:13.948Z,12.47
2018-05-13T14:22:43.049Z,15.82
2018-05-13T14:25:12.601Z,15.30
2018-05-13T14:27:41.488Z,15.35
2018-05-13T14:30:10.836Z,17.23
2018-05-13T14:32:39.540Z,12.93
2018-05-13T14:35:08.146Z,13.50
2018-05-13T14:37:36.827Z,12.13
2018-05-13T14:40:05.389Z,11.00
2018-05-13T14:42:34.620Z,20.13
2018-05-13T14:45:03.220Z,18.27
2018-05-13T14:47:31.772Z,8.73
2018-05-13T14:50:00.347Z,11.52
2018-05-13T14:52:28.841Z,7.90
2018-05-13T14:54:57.359Z,9.80
2018-05-13T14:57:25.848Z,8.17
2018-05-13T14:59:54.532Z,9.67
2018-05-13T15:02:23.019Z,12.48
2018-05-13T15:04:52.469Z,9.40
2018-05-13T15:07:29.903Z,8.80
2018-05-13T15:09:58.633Z,11.73
2018-05-13T15:12:27.308Z,10.03
2018-05-13T15:14:55.736Z,13.33
2018-05-13T15:17:24.270Z,8.97
2018-05-13T15:19:52.975Z,6.10
2018-05-13T15:22:36.202Z,9.30
2018-05-13T15:25:04.765Z,7.57
2018-05-13T15:27:33.291Z,6.57
2018-05-13T15:30:01.929Z,16.83
2018-05-13T15:32:30.421Z,16.50
2018-05-13T15:34:59.193Z,6.70
2018-05-13T15:37:27.709Z,7.73
2018-05-13T15:39:56.178Z,10.40
2018-05-13T15:42:24.700Z,10.10
2018-05-13T15:44:53.738Z,14.30
2018-05-13T15:47:22.137Z,6.23
2018-05-13T15:49:50.487Z,8.90
2018-05-13T15:52:18.812Z,16.58
2018-05-13T15:54:47.839Z,24.77
2018-05-13T15:57:16.169Z,13.30
2018-05-13T15:59:44.521Z,5.73
2018-05-13T16:02:12.853Z,11.07
2018-05-13T16:04:41.200Z,9.30
2018-05-13T16:07:09.533Z,11.15
2018-05-13T16:09:37.889Z,17.77
2018-05-13T16:12:06.228Z,7.67
2018-05-13T16:14:35.561Z,12.30
2018-05-13T16:17:03.891Z,7.30
2018-05-13T16:19:32.232Z,7.57
2018-05-13T16:22:00.556Z,10.30
2018-05-13T16:24:28.908Z,9.30
2018-05-13T16:26:57.257Z,9.35
2018-05-13T16:29:25.671Z,12.50
2018-05-13T16:31:53.988Z,23.10
2018-05-13T16:34:23.096Z,14.40
2018-05-13T16:36:51.432Z,19.13
2018-05-13T16:39:19.793Z,15.20
2018-05-13T16:41:48.121Z,17.42
2018-05-13T16:44:16.460Z,14.40
2018-05-13T16:46:44.821Z,18.37
2018-05-13T16:49:13.161Z,18.70
2018-05-13T16:51:41.521Z,11.63
2018-05-13T16:54:10.616Z,12.98
2018-05-13T16:56:38.972Z,17.67
2018-05-13T16:59:07.315Z,13.60
2018-05-13T17:01:35.724Z,16.83
2018-05-13T17:04:04.015Z,16.90
2018-05-13T17:06:32.372Z,18.50
2018-05-13T17:09:00.717Z,21.35
2018-05-13T17:11:29.076Z,16.27
2018-05-13T17:13:57.421Z,15.65
2018-05-13T17:16:25.781Z,17.23
2018-05-13T17:18:54.121Z,15.63
2018-05-13T17:21:22.478Z,17.15
2018-05-13T17:23:50.816Z,24.05
2018-05-13T17:26:19.183Z,19.08
2018-05-13T17:28:47.518Z,20.57
2018-05-13T17:31:15.907Z,18.40
2018-05-13T17:33:44.227Z,17.40
2018-05-13T17:36:12.585Z,15.30
2018-05-13T17:38:40.929Z,16.52
2018-05-13T17:41:09.321Z,27.60
2018-05-13T17:43:37.632Z,20.03
2018-05-13T17:46:05.993Z,11.70
2018-05-13T17:48:34.322Z,14.35
2018-05-13T17:51:02.673Z,9.95
2018-05-13T17:53:31.030Z,8.00
2018-05-13T17:55:59.355Z,10.18
2018-05-13T17:58:27.672Z,8.93
2018-05-13T18:00:56.061Z,6.90
2018-05-13T18:03:24.368Z,7.60
2018-05-13T18:05:52.718Z,8.27
2018-05-13T18:08:21.056Z,7.70
2018-05-13T18:10:49.397Z,5.60
2018-05-13T18:13:17.781Z,9.64
2018-05-13T18:15:46.124Z,7.90
2018-05-13T18:18:14.449Z,9.35
2018-05-13T18:20:42.806Z,10.20
2018-05-13T18:23:11.128Z,8.80
2018-05-13T18:25:39.481Z,13.73
2018-05-13T18:28:07.898Z,12.43
2018-05-13T18:30:36.189Z,7.22
2018-05-13T18:33:04.521Z,10.30
2018-05-13T18:35:32.864Z,7.57
2018-05-13T18:38:01.193Z,11.43
2018-05-13T18:40:30.336Z,16.93
2018-05-13T18:42:58.665Z,13.60
2018-05-13T18:45:27.049Z,10.90
2018-05-13T18:47:55.393Z,19.77
2018-05-13T18:50:23.880Z,11.37
2018-05-13T18:52:52.102Z,17.42
2018-05-13T18:55:20.436Z,13.40
2018-05-13T18:57:48.800Z,13.60
2018-05-13T19:00:17.438Z,13.10
2018-05-13T19:02:45.797Z,15.30
2018-05-13T19:05:14.136Z,14.53
2018-05-13T19:07:42.493Z,16.87
2018-05-13T19:10:10.833Z,18.23
2018-05-13T19:12:39.201Z,17.33
2018-05-13T19:15:07.528Z,17.10
2018-05-13T19:17:35.897Z,14.70
2018-05-13T19:20:04.966Z,30.43
2018-05-13T19:22:33.354Z,16.93
2018-05-13T19:25:01.677Z,15.77
2018-05-13T19:27:30.037Z,18.50
2018-05-13T19:29:58.379Z,17.07
2018-05-13T19:32:26.741Z,18.27
2018-05-13T19:34:55.083Z,20.50
2018-05-13T19:37:23.437Z,22.10
2018-05-13T19:39:52.698Z,19.62
2018-05-13T19:42:21.059Z,26.80
2018-05-13T19:44:49.392Z,19.20
2018-05-13T19:47:17.753Z,18.07
2018-05-13T19:49:46.107Z,15.93
2018-05-13T19:52:14.449Z,21.47
2018-05-13T19:54:42.788Z,19.47
2018-05-13T19:57:11.143Z,18.90
2018-05-13T19:59:40.225Z,15.60
2018-05-13T20:02:08.585Z,17.13
2018-05-13T20:04:36.921Z,16.13
2018-05-13T20:07:05.286Z,21.27
2018-05-13T20:09:33.665Z,23.13
2018-05-13T20:12:01.979Z,20.80
2018-05-13T20:14:30.321Z,28.20
2018-05-13T20:16:58.681Z,17.80
2018-05-13T20:19:27.017Z,23.37
2018-05-13T20:21:55.374Z,24.67
2018-05-13T20:24:23.711Z,24.90
2018-05-13T20:26:52.105Z,19.40
2018-05-13T20:29:20.444Z,20.40
2018-05-13T20:31:48.801Z,20.87
2018-05-13T20:34:17.145Z,21.50
2018-05-13T20:36:45.504Z,17.40
2018-05-13T20:39:14.568Z,18.30
2018-05-13T20:41:42.924Z,21.60
2018-05-13T20:44:11.341Z,28.00
2018-05-13T20:46:39.625Z,25.23
2018-05-13T20:49:07.961Z,20.05
2018-05-13T20:51:36.300Z,21.30
2018-05-13T20:54:04.670Z,20.65
2018-05-13T20:56:33.017Z,20.97
2018-05-13T20:59:02.293Z,29.10
2018-05-13T21:01:30.581Z,19.53
2018-05-13T21:03:58.941Z,22.43
2018-05-13T21:06:27.276Z,18.90
2018-05-13T21:08:55.642Z,23.38
2018-05-13T21:11:23.989Z,24.80
2018-05-13T21:13:52.344Z,21.80
2018-05-13T21:16:20.682Z,24.30
2018-05-13T21:18:49.838Z,19.23
2018-05-13T21:21:18.173Z,20.17
2018-05-13T21:23:46.537Z,21.23
2018-05-13T21:26:14.880Z,25.08
2018-05-13T21:28:43.249Z,27.30
2018-05-13T21:31:11.591Z,27.52
2018-05-13T21:33:39.957Z,26.80
2018-05-13T21:36:08.297Z,27.10
2018-05-13T21:38:36.672Z,24.73
2018-05-13T21:41:05.009Z,27.80
2018-05-13T21:43:33.370Z,27.10
2018-05-13T21:46:01.697Z,26.77
2018-05-13T21:48:30.055Z,27.33
2018-05-13T21:50:58.384Z,26.00
2018-05-13T21:53:26.737Z,25.40
2018-05-13T21:55:55.073Z,35.80
2018-05-13T21:58:23.424Z,27.57
2018-05-13T22:00:51.757Z,28.50
2018-05-13T22:03:20.116Z,27.60
2018-05-13T22:05:48.449Z,31.67
2018-05-13T22:08:16.802Z,33.00
2018-05-13T22:10:45.141Z,28.53
2018-05-13T22:13:13.497Z,28.13
2018-05-13T22:15:41.825Z,34.03
2018-05-13T22:18:10.181Z,30.53
2018-05-13T22:20:38.508Z,31.00
2018-05-13T22:23:06.864Z,34.40
2018-05-13T22:25:35.243Z,33.80
2018-05-13T22:28:03.561Z,33.70
2018-05-13T22:30:31.884Z,33.10
2018-05-13T22:33:00.245Z,28.60
2018-05-13T22:35:28.577Z,32.60
2018-05-13T22:37:56.933Z,38.60
2018-05-13T22:40:25.268Z,33.60
2018-05-13T22:42:53.616Z,34.67
2018-05-13T22:45:21.953Z,31.57
2018-05-13T22:47:50.306Z,31.70
2018-05-13T22:50:18.637Z,36.93
2018-05-13T22:52:46.981Z,41.43
2018-05-13T22:55:15.332Z,34.03
2018-05-13T22:57:43.673Z,31.30
2018-05-13T23:00:12.030Z,40.10
2018-05-13T23:02:40.365Z,32.00
2018-05-13T23:05:08.716Z,30.33
2018-05-13T23:07:37.054Z,31.40
2018-05-13T23:10:05.409Z,34.20
2018-05-13T23:12:33.746Z,32.30
2018-05-13T23:15:02.096Z,34.07
2018-05-13T23:17:30.432Z,33.10
2018-05-13T23:19:58.780Z,33.67
2018-05-13T23:22:34.813Z,33.77
2018-05-13T23:25:03.161Z,34.53
2018-05-13T23:27:31.488Z,36.70
2018-05-13T23:29:59.841Z,37.10
2018-05-13T23:32:28.180Z,34.70
2018-05-13T23:34:56.537Z,34.47
2018-05-13T23:37:24.869Z,33.53
2018-05-13T23:39:53.216Z,35.90
2018-05-13T23:42:21.553Z,38.30
2018-05-13T23:44:49.904Z,30.63
2018-05-13T23:47:18.233Z,31.23
2018-05-13T23:49:46.592Z,25.87
2018-05-13T23:52:14.926Z,30.77
2018-05-13T23:54:43.277Z,29.13
2018-05-13T23:57:11.624Z,27.20
2018-05-13T23:59:39.982Z,27.50
